Terminal Aerodrome Forecast
Issued by NWS

Home | Current Version | Previous Version | Text Only | Print | Product List | Glossary On
Versions: 1 2 3 4 5 6 7 8 9 10 11 12 13 14 15 16 17 18 19 20 21
000
FTUS43 KICT 181742 AAA
TAFHUT
TAF AMD
KHUT 181742Z 1818/1918 14014KT P6SM SCT250
     FM190200 14013KT P6SM VCTS BKN250CB
     FM190400 14011G24KT P6SM VCTS BKN120CB WS020/16040KT
      TEMPO 1905/1909 3SM TSRA OVC060CB
     FM190900 12010KT P6SM BKN110 WS020/17035KT
     FM191400 13015KT P6SM SCT045=

USA.gov is the U.S. government's official web portal to all federal, state and local government web resources and services.